createdAt,value
2023-05-20T00:00:09.786Z,102460.06
2023-05-20T00:03:11.725Z,102464.53
2023-05-20T00:06:13.558Z,102464.59
2023-05-20T00:09:16.994Z,102465.69
2023-05-20T00:12:18.720Z,102464.28
2023-05-20T00:15:20.326Z,102462.75
2023-05-20T00:18:21.945Z,102462.03
2023-05-20T00:21:23.491Z,102460.53
2023-05-20T00:24:25.532Z,102467.03
2023-05-20T00:27:27.327Z,102460.94
2023-05-20T00:30:28.939Z,102469.13
2023-05-20T00:33:31.148Z,102467.59
2023-05-20T00:36:32.750Z,102464.28
2023-05-20T00:39:34.329Z,102460.09
2023-05-20T00:42:35.951Z,102465.72
2023-05-20T00:45:38.241Z,102455.28
2023-05-20T00:48:42.474Z,102458.19
2023-05-20T00:51:44.162Z,102457.56
2023-05-20T00:54:46.204Z,102465.78
2023-05-20T00:57:49.549Z,102464.34
2023-05-20T01:00:51.724Z,102467.31
2023-05-20T01:03:53.462Z,102466.69
2023-05-20T01:06:55.903Z,102455.31
2023-05-20T01:09:57.705Z,102466.97
2023-05-20T01:13:05.442Z,102464.56
2023-05-20T01:16:09.165Z,102459.50
2023-05-20T01:19:24.981Z,102458.91
2023-05-20T01:22:30.055Z,102454.69
2023-05-20T01:25:31.699Z,102458.53
2023-05-20T01:28:35.948Z,102448.97
2023-05-20T01:31:38.980Z,102450.97
2023-05-20T01:34:42.011Z,102455.63
2023-05-20T01:37:44.438Z,102457.75
2023-05-20T01:40:47.285Z,102452.69
2023-05-20T01:43:48.951Z,102450.34
2023-05-20T01:46:50.978Z,102446.91
2023-05-20T01:49:54.245Z,102450.56
2023-05-20T01:52:56.031Z,102447.97
2023-05-20T01:55:57.637Z,102439.16
2023-05-20T01:58:59.245Z,102445.53
2023-05-20T02:02:00.883Z,102447.53
2023-05-20T02:05:03.005Z,102438.94
2023-05-20T02:08:04.868Z,102434.72
2023-05-20T02:11:06.483Z,102438.44
2023-05-20T02:14:08.103Z,102436.88
2023-05-20T02:17:09.702Z,102441.53
2023-05-20T02:20:11.771Z,102435.59
2023-05-20T02:23:13.415Z,102433.22
2023-05-20T02:26:15.011Z,102437.91
2023-05-20T02:29:16.977Z,102442.53
2023-05-20T02:32:20.763Z,102444.41
2023-05-20T02:35:22.379Z,102438.38
2023-05-20T02:38:24.667Z,102435.03
2023-05-20T02:41:26.235Z,102435.28
2023-05-20T02:44:27.826Z,102438.09
2023-05-20T02:47:29.546Z,102435.63
2023-05-20T02:50:31.380Z,102437.56
2023-05-20T02:53:33.031Z,102444.84
2023-05-20T02:56:34.666Z,102442.38
2023-05-20T02:59:36.494Z,102442.47
2023-05-20T03:02:38.187Z,102445.31
2023-05-20T03:05:42.439Z,102445.44
2023-05-20T03:08:44.055Z,102442.91
2023-05-20T03:11:47.678Z,102448.28
2023-05-20T03:14:49.259Z,102444.06
2023-05-20T03:17:51.034Z,102440.63
2023-05-20T03:20:52.733Z,102444.31
2023-05-20T03:23:54.340Z,102450.69
2023-05-20T03:26:56.175Z,102438.47
2023-05-20T03:29:57.996Z,102444.84
2023-05-20T03:32:59.859Z,102441.41
2023-05-20T03:36:01.725Z,102442.31
2023-05-20T03:39:04.471Z,102442.44
2023-05-20T03:42:06.211Z,102444.31
2023-05-20T03:45:08.360Z,102454.16
2023-05-20T03:48:10.001Z,102447.16
2023-05-20T03:51:11.600Z,102435.72
2023-05-20T03:54:13.202Z,102436.69
2023-05-20T03:57:14.844Z,102444.69
2023-05-20T04:00:17.595Z,102449.16
2023-05-20T04:03:19.344Z,102445.66
2023-05-20T04:06:22.604Z,102443.88
2023-05-20T04:09:24.486Z,102432.44
2023-05-20T04:12:30.637Z,102438.63
2023-05-20T04:15:36.137Z,102438.63
2023-05-20T04:18:39.262Z,102441.28
2023-05-20T04:21:43.121Z,102440.34
2023-05-20T04:24:46.133Z,102442.16
2023-05-20T04:27:48.384Z,102435.00
2023-05-20T04:30:50.219Z,102441.13
2023-05-20T04:33:52.098Z,102432.25
2023-05-20T04:36:53.749Z,102436.59
2023-05-20T04:39:55.442Z,102438.25
2023-05-20T04:43:00.056Z,102444.44
2023-05-20T04:46:01.692Z,102446.28
2023-05-20T04:49:04.621Z,102443.63
2023-05-20T04:52:06.394Z,102438.38
2023-05-20T04:55:11.963Z,102437.50
2023-05-20T04:58:17.488Z,102437.50
2023-05-20T05:01:19.332Z,102441.94
2023-05-20T05:04:21.055Z,102442.81
2023-05-20T05:07:22.741Z,102433.06
2023-05-20T05:10:25.261Z,102437.44
2023-05-20T05:13:26.893Z,102447.06
2023-05-20T05:16:28.620Z,102441.59
2023-05-20T05:19:30.290Z,102436.19
2023-05-20T05:22:32.013Z,102444.00
2023-05-20T05:25:33.788Z,102443.97
2023-05-20T05:28:35.620Z,102452.56
2023-05-20T05:31:37.216Z,102442.09
2023-05-20T05:34:38.861Z,102452.13
2023-05-20T05:37:40.835Z,102443.94
2023-05-20T05:40:42.406Z,102445.53
2023-05-20T05:43:44.047Z,102440.03
2023-05-20T05:46:45.790Z,102453.94
2023-05-20T05:49:47.948Z,102447.53
2023-05-20T05:52:49.626Z,102443.00
2023-05-20T05:55:51.250Z,102434.22
2023-05-20T05:58:52.932Z,102440.03
2023-05-20T06:01:54.539Z,102438.94
2023-05-20T06:04:56.185Z,102440.50
2023-05-20T06:07:57.841Z,102434.97
2023-05-20T06:10:59.479Z,102436.38
2023-05-20T06:14:01.956Z,102436.06
2023-05-20T06:17:04.498Z,102436.63
2023-05-20T06:20:07.594Z,102436.31
2023-05-20T06:23:09.211Z,102433.38
2023-05-20T06:26:10.904Z,102433.00
2023-05-20T06:29:12.451Z,102433.53
2023-05-20T06:32:14.054Z,102428.69
2023-05-20T06:35:16.028Z,102428.31
2023-05-20T06:38:17.665Z,102424.34
2023-05-20T06:41:19.315Z,102421.34
2023-05-20T06:44:20.989Z,102428.13
2023-05-20T06:47:22.631Z,102424.09
2023-05-20T06:50:25.062Z,102416.63
2023-05-20T06:53:26.723Z,102415.19
2023-05-20T06:56:28.395Z,102414.81
2023-05-20T06:59:30.671Z,102417.91
2023-05-20T07:02:34.057Z,102412.09
2023-05-20T07:05:36.409Z,102409.84
2023-05-20T07:08:38.624Z,102418.47
2023-05-20T07:11:41.015Z,102409.34
2023-05-20T07:14:43.774Z,102399.31
2023-05-20T07:17:46.169Z,102409.69
2023-05-20T07:20:49.518Z,102402.72
2023-05-20T07:23:51.609Z,102406.47
2023-05-20T07:26:53.381Z,102405.06
2023-05-20T07:29:55.673Z,102407.44
2023-05-20T07:32:58.393Z,102401.72
2023-05-20T07:36:00.231Z,102392.47
2023-05-20T07:39:05.732Z,102393.00
2023-05-20T07:42:10.313Z,102392.69
2023-05-20T07:45:12.037Z,102387.84
2023-05-20T07:48:13.757Z,102384.88
2023-05-20T07:51:15.373Z,102384.47
2023-05-20T07:54:17.054Z,102385.88
2023-05-20T07:57:18.619Z,102382.78
2023-05-20T08:00:20.746Z,102385.91
2023-05-20T08:03:22.895Z,102375.47
2023-05-20T08:06:25.799Z,102377.66
2023-05-20T08:09:28.413Z,102371.66
2023-05-20T08:12:29.978Z,102379.16
2023-05-20T08:15:31.740Z,102374.06
2023-05-20T08:18:36.589Z,102366.34
2023-05-20T08:21:38.558Z,102364.94
2023-05-20T08:24:40.186Z,102367.00
2023-05-20T08:27:41.987Z,102369.34
2023-05-20T08:30:43.622Z,102358.34
2023-05-20T08:33:45.218Z,102360.59
2023-05-20T08:36:47.206Z,102360.03
2023-05-20T08:39:50.052Z,102361.31
2023-05-20T08:42:54.464Z,102361.78
2023-05-20T08:45:56.760Z,102339.94
2023-05-20T08:48:59.706Z,102343.19
2023-05-20T08:52:01.607Z,102343.59
2023-05-20T08:55:04.864Z,102333.03
2023-05-20T08:58:07.147Z,102339.56
2023-05-20T09:01:08.861Z,102338.13
2023-05-20T09:04:10.499Z,102336.03
2023-05-20T09:07:12.262Z,102335.91
2023-05-20T09:10:14.145Z,102328.63
2023-05-20T09:13:15.710Z,102332.94
2023-05-20T09:16:17.336Z,102330.94
2023-05-20T09:19:24.317Z,102319.91
2023-05-20T09:22:28.374Z,102330.34
2023-05-20T09:25:30.255Z,102331.03
2023-05-20T09:28:31.877Z,102319.69
2023-05-20T09:31:34.557Z,102317.09
2023-05-20T09:34:36.215Z,102315.63
2023-05-20T09:37:38.789Z,102315.03
2023-05-20T09:40:44.139Z,102303.03
2023-05-20T09:43:45.795Z,102306.72
2023-05-20T09:46:48.882Z,102313.00
2023-05-20T09:49:52.692Z,102298.28
2023-05-20T09:52:55.420Z,102296.91
2023-05-20T09:55:58.637Z,102293.16
2023-05-20T09:59:02.552Z,102286.38
2023-05-20T10:02:06.522Z,102295.75
2023-05-20T10:05:14.259Z,102288.22
2023-05-20T10:08:22.454Z,102289.56
2023-05-20T10:11:42.162Z,102279.97
2023-05-20T10:14:49.372Z,102285.69
2023-05-20T10:17:59.707Z,102277.63
2023-05-20T10:21:01.466Z,102278.91
2023-05-20T10:24:08.260Z,102282.03
2023-05-20T10:27:15.781Z,102280.16
2023-05-20T10:30:22.083Z,102274.09
2023-05-20T10:33:23.768Z,102273.69
2023-05-20T10:36:31.492Z,102272.25
2023-05-20T10:39:34.689Z,102257.94
2023-05-20T10:42:36.367Z,102249.59
2023-05-20T10:45:51.766Z,102244.19
2023-05-20T10:48:53.543Z,102232.53
2023-05-20T10:51:55.653Z,102231.72
2023-05-20T10:54:59.562Z,102230.00
2023-05-20T10:58:01.624Z,102226.72
2023-05-20T11:01:03.610Z,102221.56
2023-05-20T11:04:06.744Z,102219.03
2023-05-20T11:07:08.485Z,102215.13
2023-05-20T11:10:11.069Z,102212.38
2023-05-20T11:13:14.208Z,102212.84
2023-05-20T11:16:16.005Z,102205.16
2023-05-20T11:19:19.047Z,102207.94
2023-05-20T11:22:20.781Z,102215.81
2023-05-20T11:25:26.118Z,102205.78
2023-05-20T11:28:27.734Z,102205.41
2023-05-20T11:31:29.351Z,102202.50
2023-05-20T11:34:40.646Z,102194.53
2023-05-20T11:37:43.332Z,102198.25
2023-05-20T11:40:50.879Z,102197.56
2023-05-20T11:44:01.013Z,102202.41
2023-05-20T11:47:04.142Z,102198.31
2023-05-20T11:50:07.064Z,102206.66
2023-05-20T11:53:10.614Z,102201.50
2023-05-20T11:56:14.627Z,102202.19
2023-05-20T11:59:16.187Z,102206.53
2023-05-20T12:02:17.850Z,102209.38
2023-05-20T12:05:19.670Z,102207.47
2023-05-20T12:08:21.357Z,102214.78
2023-05-20T12:11:23.076Z,102218.13
2023-05-20T12:14:24.684Z,102211.47
2023-05-20T12:17:26.282Z,102220.16
2023-05-20T12:20:27.947Z,102221.44
2023-05-20T12:23:33.956Z,102215.41
2023-05-20T12:26:36.053Z,102207.91
2023-05-20T12:29:37.694Z,102197.56
2023-05-20T12:32:39.359Z,102212.59
2023-05-20T12:35:42.915Z,102205.28
2023-05-20T12:38:44.544Z,102201.78
2023-05-20T12:41:46.128Z,102192.94
2023-05-20T12:44:47.734Z,102188.00
2023-05-20T12:47:49.459Z,102190.22
2023-05-20T12:50:51.080Z,102188.84
2023-05-20T12:53:52.658Z,102187.22
2023-05-20T12:56:55.031Z,102188.38
2023-05-20T12:59:56.744Z,102182.69
2023-05-20T13:02:58.412Z,102163.97
2023-05-20T13:06:00.209Z,102168.47
2023-05-20T13:09:01.920Z,102162.38
2023-05-20T13:12:04.173Z,102166.03
2023-05-20T13:15:06.691Z,102163.22
2023-05-20T13:18:10.777Z,102165.72
2023-05-20T13:21:12.757Z,102165.91
2023-05-20T13:24:15.295Z,102148.19
2023-05-20T13:27:17.724Z,102147.22
2023-05-20T13:30:19.612Z,102142.06
2023-05-20T13:33:23.501Z,102131.41
2023-05-20T13:36:25.938Z,102134.97
2023-05-20T13:39:27.849Z,102130.34
2023-05-20T13:42:30.409Z,102124.22
2023-05-20T13:45:32.057Z,102127.03
2023-05-20T13:48:33.763Z,102118.84
2023-05-20T13:51:35.857Z,102115.94
2023-05-20T13:54:37.581Z,102102.09
2023-05-20T13:57:39.167Z,102109.72
2023-05-20T14:00:41.328Z,102096.28
2023-05-20T14:03:43.081Z,102095.97
2023-05-20T14:06:44.813Z,102096.63
2023-05-20T14:09:46.419Z,102090.72
2023-05-20T14:12:48.333Z,102082.13
2023-05-20T14:15:50.935Z,102076.94
2023-05-20T14:18:52.650Z,102073.31
2023-05-20T14:21:54.489Z,102085.88
2023-05-20T14:24:56.407Z,102082.53
2023-05-20T14:27:57.988Z,102083.72
2023-05-20T14:30:59.579Z,102081.03
2023-05-20T14:34:01.232Z,102065.47
2023-05-20T14:37:07.966Z,102072.13
2023-05-20T14:40:09.964Z,102069.00
2023-05-20T14:43:11.526Z,102068.88
2023-05-20T14:46:13.241Z,102061.03
2023-05-20T14:49:14.822Z,102055.88
2023-05-20T14:52:17.509Z,102057.59
2023-05-20T14:55:19.109Z,102053.50
2023-05-20T14:58:20.716Z,102052.88
2023-05-20T15:01:22.392Z,102049.84
2023-05-20T15:04:24.015Z,102043.50
2023-05-20T15:07:26.428Z,102051.47
2023-05-20T15:10:28.032Z,102040.59
2023-05-20T15:13:29.683Z,102051.34
2023-05-20T15:16:31.344Z,102038.13
2023-05-20T15:19:33.014Z,102041.88
2023-05-20T15:22:34.683Z,102042.22
2023-05-20T15:25:36.665Z,102039.97
2023-05-20T15:28:39.617Z,102040.94
2023-05-20T15:31:41.220Z,102039.31
2023-05-20T15:34:43.622Z,102043.44
2023-05-20T15:37:45.245Z,102036.56
2023-05-20T15:40:47.494Z,102033.34
2023-05-20T15:43:49.201Z,102039.78
2023-05-20T15:46:51.429Z,102034.63
2023-05-20T15:49:54.537Z,102028.50
2023-05-20T15:52:56.522Z,102026.66
2023-05-20T15:55:59.802Z,102024.84
2023-05-20T15:59:01.704Z,102021.94
2023-05-20T16:02:03.364Z,102026.34
2023-05-20T16:05:05.431Z,102026.44
2023-05-20T16:08:07.024Z,102023.88
2023-05-20T16:11:09.292Z,102022.34
2023-05-20T16:14:10.928Z,102014.63
2023-05-20T16:17:12.858Z,102005.94
2023-05-20T16:20:14.505Z,102017.66
2023-05-20T16:23:16.155Z,102018.59
2023-05-20T16:26:17.740Z,102008.09
2023-05-20T16:29:19.640Z,102007.09
2023-05-20T16:32:24.060Z,101996.50
2023-05-20T16:35:25.826Z,102005.50
2023-05-20T16:38:27.498Z,102000.03
2023-05-20T16:41:29.092Z,102007.09
2023-05-20T16:44:30.935Z,101998.97
2023-05-20T16:47:33.095Z,101995.41
2023-05-20T16:50:34.842Z,102000.78
2023-05-20T16:53:37.616Z,101998.97
2023-05-20T16:56:39.242Z,101997.13
2023-05-20T16:59:41.104Z,102001.75
2023-05-20T17:02:42.744Z,102002.47
2023-05-20T17:05:44.398Z,101996.16
2023-05-20T17:08:46.194Z,101990.66
2023-05-20T17:11:47.799Z,101983.69
2023-05-20T17:14:49.412Z,101984.69
2023-05-20T17:17:51.383Z,101992.94
2023-05-20T17:20:53.170Z,101993.88
2023-05-20T17:23:54.720Z,101993.22
2023-05-20T17:26:56.311Z,101990.75
2023-05-20T17:29:59.220Z,101992.81
2023-05-20T17:33:01.217Z,101994.84
2023-05-20T17:36:03.222Z,101986.03
2023-05-20T17:39:04.805Z,101991.72
2023-05-20T17:42:06.368Z,101993.63
2023-05-20T17:45:08.499Z,101989.34
2023-05-20T17:48:11.749Z,101994.94
2023-05-20T17:51:13.691Z,101997.72
2023-05-20T17:54:15.518Z,101996.84
2023-05-20T17:57:17.457Z,101993.34
2023-05-20T18:00:21.486Z,101998.69
2023-05-20T18:03:23.245Z,102003.28
2023-05-20T18:06:26.500Z,101999.09
2023-05-20T18:09:28.105Z,101997.59
2023-05-20T18:12:29.672Z,101996.84
2023-05-20T18:15:31.566Z,102012.28
2023-05-20T18:18:33.143Z,102006.25
2023-05-20T18:21:35.628Z,102004.66
2023-05-20T18:24:37.472Z,102002.94
2023-05-20T18:27:39.990Z,102005.72
2023-05-20T18:30:41.567Z,102007.84
2023-05-20T18:33:43.191Z,102003.47
2023-05-20T18:36:45.098Z,102010.63
2023-05-20T18:39:46.783Z,102011.72
2023-05-20T18:42:48.373Z,102011.81
2023-05-20T18:45:50.171Z,102018.25
2023-05-20T18:48:51.826Z,102019.41
2023-05-20T18:51:53.396Z,102020.56
2023-05-20T18:54:55.002Z,102018.09
2023-05-20T18:57:56.572Z,102020.03
2023-05-20T19:00:58.175Z,102025.59
2023-05-20T19:03:59.762Z,102021.47
2023-05-20T19:07:01.380Z,102020.72
2023-05-20T19:10:03.590Z,102010.00
2023-05-20T19:13:05.159Z,102010.94
2023-05-20T19:16:07.115Z,102016.31
2023-05-20T19:19:08.744Z,102013.59
2023-05-20T19:22:10.886Z,102014.84
2023-05-20T19:25:12.632Z,102006.19
2023-05-20T19:28:14.497Z,102021.47
2023-05-20T19:31:21.174Z,102026.94
2023-05-20T19:34:23.797Z,102024.44
2023-05-20T19:37:25.464Z,102030.09
2023-05-20T19:40:27.068Z,102032.97
2023-05-20T19:43:30.496Z,102044.75
2023-05-20T19:46:32.402Z,102038.75
2023-05-20T19:49:34.136Z,102042.50
2023-05-20T19:52:35.890Z,102047.09
2023-05-20T19:55:38.715Z,102038.28
2023-05-20T19:58:40.539Z,102036.56
2023-05-20T20:01:43.181Z,102041.25
2023-05-20T20:04:44.839Z,102038.56
2023-05-20T20:07:47.992Z,102040.50
2023-05-20T20:10:49.881Z,102038.00
2023-05-20T20:13:51.557Z,102035.44
2023-05-20T20:16:54.604Z,102038.13
2023-05-20T20:19:56.180Z,102034.56
2023-05-20T20:22:57.873Z,102029.88
2023-05-20T20:25:59.579Z,102028.72
2023-05-20T20:29:01.156Z,102033.78
2023-05-20T20:32:03.806Z,102035.50
2023-05-20T20:35:06.105Z,102032.91
2023-05-20T20:38:10.491Z,102028.84
2023-05-20T20:41:12.171Z,102025.47
2023-05-20T20:44:17.110Z,102024.72
2023-05-20T20:47:19.261Z,102016.88
2023-05-20T20:50:21.668Z,102012.56
2023-05-20T20:53:23.301Z,102004.81
2023-05-20T20:56:25.742Z,101997.16
2023-05-20T20:59:27.324Z,101996.91
2023-05-20T21:02:28.933Z,101993.00
2023-05-20T21:05:30.571Z,101992.63
2023-05-20T21:08:32.218Z,101988.50
2023-05-20T21:11:36.142Z,101980.88
2023-05-20T21:14:37.750Z,101976.75
2023-05-20T21:17:39.393Z,101978.91
2023-05-20T21:20:40.973Z,101979.88
2023-05-20T21:23:42.531Z,101972.91
2023-05-20T21:26:44.105Z,101972.22
2023-05-20T21:29:45.650Z,101972.31
2023-05-20T21:32:47.373Z,101971.47
2023-05-20T21:35:49.033Z,101974.06
2023-05-20T21:38:50.843Z,101973.19
2023-05-20T21:41:52.447Z,101968.69
2023-05-20T21:44:54.042Z,101968.69
2023-05-20T21:47:55.773Z,101965.22
2023-05-20T21:50:57.401Z,101975.09
2023-05-20T21:53:58.978Z,101968.03
2023-05-20T21:57:02.582Z,101970.69
2023-05-20T22:00:09.985Z,101965.44
2023-05-20T22:03:13.122Z,101960.09
2023-05-20T22:06:16.083Z,101957.50
2023-05-20T22:09:17.703Z,101960.28
2023-05-20T22:12:20.653Z,101965.81
2023-05-20T22:15:23.011Z,101962.19
2023-05-20T22:18:24.670Z,101954.34
2023-05-20T22:21:26.567Z,101966.00
2023-05-20T22:24:28.202Z,101951.97
2023-05-20T22:27:29.877Z,101945.94
2023-05-20T22:30:31.523Z,101949.75
2023-05-20T22:33:33.067Z,101935.63
2023-05-20T22:36:36.347Z,101939.44
2023-05-20T22:39:38.900Z,101936.94
2023-05-20T22:42:40.734Z,101933.88
2023-05-20T22:45:42.512Z,101936.16
2023-05-20T22:48:44.601Z,101932.16
2023-05-20T22:51:46.174Z,101927.19
2023-05-20T22:54:47.760Z,101919.34
2023-05-20T22:57:49.332Z,101922.31
2023-05-20T23:00:51.102Z,101916.47
2023-05-20T23:03:53.801Z,101913.03
2023-05-20T23:06:56.757Z,101911.50
2023-05-20T23:09:59.482Z,101906.31
2023-05-20T23:13:01.036Z,101900.41
2023-05-20T23:16:05.538Z,101896.19
2023-05-20T23:19:07.310Z,101891.03
2023-05-20T23:22:08.886Z,101890.34
2023-05-20T23:25:10.577Z,101883.28
2023-05-20T23:28:12.172Z,101875.56
2023-05-20T23:31:14.760Z,101881.78
2023-05-20T23:34:16.686Z,101874.25
2023-05-20T23:37:18.280Z,101867.94
2023-05-20T23:40:19.878Z,101866.59
2023-05-20T23:43:21.444Z,101866.22
2023-05-20T23:46:23.111Z,101864.88
2023-05-20T23:49:27.301Z,101866.16
2023-05-20T23:52:29.016Z,101856.75
2023-05-20T23:55:31.839Z,101857.16
2023-05-20T23:58:34.275Z,101863.81
